createdAt,value
2022-10-20T00:00:38.346Z,1.10
2022-10-20T00:03:39.890Z,1.10
2022-10-20T00:06:41.422Z,0.90
2022-10-20T00:09:43.413Z,1.00
2022-10-20T00:12:44.846Z,1.02
2022-10-20T00:15:48.698Z,1.05
2022-10-20T00:18:51.007Z,0.85
2022-10-20T00:21:52.741Z,0.93
2022-10-20T00:24:54.699Z,0.88
2022-10-20T00:27:56.115Z,0.82
2022-10-20T00:33:58.927Z,0.90
2022-10-20T00:37:00.515Z,0.82
2022-10-20T00:40:02.696Z,0.93
2022-10-20T00:43:04.166Z,0.90
2022-10-20T00:46:05.687Z,0.90
2022-10-20T00:49:12.980Z,1.00
2022-10-20T00:52:17.890Z,1.02
2022-10-20T00:55:23.369Z,1.13
2022-10-20T00:58:25.782Z,0.93
2022-10-20T01:01:27.305Z,1.02
2022-10-20T01:04:30.415Z,1.20
2022-10-20T01:07:35.322Z,1.10
2022-10-20T01:10:40.407Z,1.23
2022-10-20T01:13:53.958Z,0.90
2022-10-20T01:17:00.730Z,1.17
2022-10-20T01:20:24.342Z,1.00
2022-10-20T01:23:43.292Z,1.00
2022-10-20T01:27:14.414Z,1.08
2022-10-20T01:30:18.652Z,1.20
2022-10-20T01:33:23.846Z,0.90
2022-10-20T01:36:31.789Z,0.82
2022-10-20T01:39:45.583Z,0.80
2022-10-20T01:42:50.595Z,0.90
2022-10-20T01:45:53.946Z,1.00
2022-10-20T01:48:56.984Z,0.90
2022-10-20T01:51:59.878Z,0.98
2022-10-20T01:55:01.356Z,0.80
2022-10-20T01:58:15.357Z,1.08
2022-10-20T02:01:27.981Z,1.10
2022-10-20T02:04:37.290Z,0.93
2022-10-20T02:07:41.351Z,0.73
2022-10-20T02:10:47.703Z,0.68
2022-10-20T02:13:50.983Z,0.70
2022-10-20T02:16:57.617Z,1.00
2022-10-20T02:19:59.037Z,1.02
2022-10-20T02:23:04.270Z,0.88
2022-10-20T02:26:07.629Z,0.70
2022-10-20T02:29:13.291Z,1.10
2022-10-20T02:32:16.791Z,0.70
2022-10-20T02:35:21.103Z,0.95
2022-10-20T02:38:22.668Z,0.90
2022-10-20T02:41:24.885Z,0.95
2022-10-20T02:44:26.336Z,0.82
2022-10-20T02:47:28.288Z,0.82
2022-10-20T02:50:29.728Z,1.10
2022-10-20T02:53:34.370Z,1.00
2022-10-20T02:56:36.472Z,0.90
2022-10-20T02:59:37.862Z,0.70
2022-10-20T03:05:43.585Z,0.65
2022-10-20T03:08:45.040Z,0.80
2022-10-20T03:11:46.587Z,1.02
2022-10-20T03:14:47.959Z,0.73
2022-10-20T03:20:51.765Z,0.70
2022-10-20T03:23:54.062Z,1.05
2022-10-20T03:26:55.464Z,0.90
2022-10-20T03:32:58.797Z,0.60
2022-10-20T03:36:00.337Z,0.73
2022-10-20T03:39:01.761Z,0.88
2022-10-20T03:45:05.601Z,0.80
2022-10-20T03:48:08.202Z,0.82
2022-10-20T03:51:12.865Z,0.80
2022-10-20T03:54:17.476Z,0.60
2022-10-20T03:57:19.726Z,0.90
2022-10-20T04:00:21.473Z,0.80
2022-10-20T04:03:23.498Z,0.70
2022-10-20T04:06:25.239Z,0.60
2022-10-20T04:09:26.691Z,0.60
2022-10-20T04:12:28.507Z,0.60
2022-10-20T04:15:30.656Z,0.75
2022-10-20T04:18:32.625Z,0.60
2022-10-20T04:21:34.016Z,0.60
2022-10-20T04:27:37.343Z,0.40
2022-10-20T04:30:39.390Z,0.70
2022-10-20T04:33:41.632Z,0.50
2022-10-20T04:36:43.022Z,0.55
2022-10-20T04:42:48.825Z,0.50
2022-10-20T04:45:50.486Z,0.35
2022-10-20T04:48:52.687Z,0.47
2022-10-20T04:51:58.631Z,0.47
2022-10-20T04:55:02.747Z,0.32
2022-10-20T04:58:04.211Z,0.57
2022-10-20T05:01:08.513Z,0.30
2022-10-20T05:04:10.998Z,0.32
2022-10-20T05:07:12.387Z,0.47
2022-10-20T05:13:15.161Z,0.20
2022-10-20T05:16:16.979Z,0.20
2022-10-20T05:19:18.943Z,0.25
2022-10-20T05:22:20.401Z,0.10
2022-10-20T05:28:38.675Z,0.32
2022-10-20T05:31:42.870Z,0.20
2022-10-20T05:34:44.916Z,0.10
2022-10-20T05:37:46.547Z,0.20
2022-10-20T05:40:48.091Z,0.00
2022-10-20T05:43:50.244Z,0.20
2022-10-20T05:46:51.643Z,0.10
2022-10-20T05:49:53.813Z,0.10
2022-10-20T05:52:55.235Z,0.10
2022-10-20T05:59:03.019Z,0.10
2022-10-20T06:05:06.679Z,0.10
2022-10-20T06:08:08.070Z,0.10
2022-10-20T06:14:12.189Z,0.10
2022-10-20T06:17:13.664Z,0.10
2022-10-20T06:20:15.826Z,0.10
2022-10-20T06:23:17.217Z,0.10
2022-10-20T06:29:20.870Z,0.10
2022-10-20T06:35:24.305Z,0.00
2022-10-20T06:38:25.733Z,0.15
2022-10-20T06:47:30.249Z,0.10
2022-10-20T06:50:33.827Z,0.20
2022-10-20T06:53:36.589Z,0.10
2022-10-20T06:56:39.640Z,0.10
2022-10-20T06:59:41.051Z,0.10
2022-10-20T07:08:47.267Z,0.10
2022-10-20T07:11:50.866Z,0.10
2022-10-20T07:14:52.457Z,0.30
2022-10-20T07:17:54.149Z,0.30
2022-10-20T07:20:58.149Z,0.25
2022-10-20T07:24:01.153Z,0.30
2022-10-20T07:27:02.853Z,0.20
2022-10-20T07:30:05.046Z,0.22
2022-10-20T07:33:07.147Z,0.20
2022-10-20T07:36:14.537Z,0.30
2022-10-20T07:39:17.048Z,0.20
2022-10-20T07:42:18.499Z,0.20
2022-10-20T07:45:21.400Z,0.17
2022-10-20T07:48:23.026Z,0.20
2022-10-20T07:51:28.340Z,0.30
2022-10-20T07:54:30.074Z,0.30
2022-10-20T07:57:31.900Z,0.30
2022-10-20T08:00:33.605Z,0.25
2022-10-20T08:03:35.909Z,0.20
2022-10-20T08:06:39.198Z,0.20
2022-10-20T08:09:42.079Z,0.20
2022-10-20T08:12:43.752Z,0.20
2022-10-20T08:15:45.597Z,0.20
2022-10-20T08:18:48.024Z,0.30
2022-10-20T08:21:50.795Z,0.28
2022-10-20T08:24:53.336Z,0.20
2022-10-20T08:27:55.198Z,0.10
2022-10-20T08:30:56.725Z,0.13
2022-10-20T08:33:58.976Z,0.10
2022-10-20T08:37:01.115Z,0.20
2022-10-20T08:40:03.335Z,0.30
2022-10-20T08:43:04.869Z,0.10
2022-10-20T08:46:06.890Z,0.20
2022-10-20T08:49:23.765Z,0.10
2022-10-20T08:52:26.941Z,0.17
2022-10-20T08:55:30.910Z,0.20
2022-10-20T08:58:36.212Z,0.40
2022-10-20T09:01:38.429Z,0.20
2022-10-20T09:04:46.706Z,0.30
2022-10-20T09:07:49.369Z,0.35
2022-10-20T09:10:53.867Z,0.30
2022-10-20T09:13:55.401Z,0.30
2022-10-20T09:17:00.152Z,0.10
2022-10-20T09:20:03.939Z,0.20
2022-10-20T09:23:22.270Z,0.20
2022-10-20T09:26:54.698Z,0.35
2022-10-20T09:29:57.425Z,0.40
2022-10-20T09:32:59.521Z,0.40
2022-10-20T09:36:05.237Z,0.40
2022-10-20T09:39:18.148Z,0.40
2022-10-20T09:42:23.465Z,0.32
2022-10-20T09:45:28.090Z,0.20
2022-10-20T09:48:33.921Z,0.30
2022-10-20T09:51:36.348Z,0.20
2022-10-20T09:54:38.763Z,0.30
2022-10-20T09:57:45.966Z,0.20
2022-10-20T10:01:00.777Z,0.30
2022-10-20T10:04:02.370Z,0.40
2022-10-20T10:07:05.346Z,0.30
2022-10-20T10:10:23.620Z,0.20
2022-10-20T10:13:27.251Z,0.22
2022-10-20T10:16:40.005Z,0.25
2022-10-20T10:19:51.419Z,0.43
2022-10-20T10:23:13.739Z,0.28
2022-10-20T10:26:43.707Z,0.17
2022-10-20T10:29:45.309Z,0.63
2022-10-20T10:32:47.908Z,0.30
2022-10-20T10:35:49.962Z,0.35
2022-10-20T10:38:51.731Z,0.17
2022-10-20T10:42:09.518Z,0.20
2022-10-20T10:45:17.924Z,0.30
2022-10-20T10:48:47.226Z,0.30
2022-10-20T10:51:58.087Z,0.30
2022-10-20T10:55:11.877Z,0.20
2022-10-20T10:58:31.609Z,0.40
2022-10-20T11:01:46.802Z,0.30
2022-10-20T11:05:17.251Z,0.25
2022-10-20T11:11:40.672Z,0.20
2022-10-20T11:14:54.270Z,0.20
2022-10-20T11:18:05.318Z,0.20
2022-10-20T11:21:21.955Z,0.20
2022-10-20T11:24:39.349Z,0.20
2022-10-20T11:27:41.042Z,0.20
2022-10-20T11:30:43.323Z,0.10
2022-10-20T11:33:50.438Z,0.20
2022-10-20T11:37:04.647Z,0.30
2022-10-20T11:40:17.039Z,0.10
2022-10-20T11:43:24.770Z,0.20
2022-10-20T11:46:34.360Z,0.30
2022-10-20T11:49:39.161Z,0.20
2022-10-20T11:52:58.144Z,0.22
2022-10-20T11:56:20.114Z,0.10
2022-10-20T11:59:35.696Z,0.40
2022-10-20T12:03:05.785Z,0.30
2022-10-20T12:06:26.259Z,0.32
2022-10-20T12:09:51.599Z,0.25
2022-10-20T12:13:04.361Z,0.20
2022-10-20T12:16:07.924Z,0.28
2022-10-20T12:19:22.581Z,0.40
2022-10-20T12:22:43.304Z,0.28
2022-10-20T12:25:45.007Z,0.20
2022-10-20T12:28:46.628Z,0.40
2022-10-20T12:32:20.249Z,0.20
2022-10-20T12:35:47.209Z,0.20
2022-10-20T12:38:51.200Z,0.38
2022-10-20T12:41:59.475Z,0.10
2022-10-20T12:45:04.975Z,0.28
2022-10-20T12:48:09.325Z,0.30
2022-10-20T12:51:20.637Z,0.20
2022-10-20T12:54:28.467Z,0.50
2022-10-20T12:57:34.711Z,0.77
2022-10-20T13:01:02.041Z,0.60
2022-10-20T13:04:43.307Z,0.50
2022-10-20T13:08:15.643Z,0.50
2022-10-20T13:11:40.204Z,0.32
2022-10-20T13:14:49.047Z,0.35
2022-10-20T13:17:56.068Z,0.20
2022-10-20T13:21:01.998Z,0.30
2022-10-20T13:24:12.707Z,0.28
2022-10-20T13:27:16.161Z,0.17
2022-10-20T13:30:21.916Z,0.22
2022-10-20T13:33:38.798Z,0.20
2022-10-20T13:37:07.545Z,0.20
2022-10-20T13:40:21.300Z,0.20
2022-10-20T13:43:34.288Z,0.20
2022-10-20T13:46:50.460Z,0.35
2022-10-20T13:49:59.553Z,0.40
2022-10-20T13:53:11.723Z,0.30
2022-10-20T13:56:24.097Z,0.45
2022-10-20T13:59:28.826Z,0.30
2022-10-20T14:02:32.456Z,0.20
2022-10-20T14:05:38.332Z,0.20
2022-10-20T14:08:42.712Z,0.20
2022-10-20T14:11:47.229Z,0.20
2022-10-20T14:14:50.781Z,0.25
2022-10-20T14:17:57.494Z,0.57
2022-10-20T14:21:02.057Z,0.60
2022-10-20T14:24:14.383Z,0.93
2022-10-20T14:27:19.934Z,0.60
2022-10-20T14:30:23.239Z,0.60
2022-10-20T14:33:25.800Z,0.47
2022-10-20T14:36:29.531Z,0.32
2022-10-20T14:39:35.522Z,0.30
2022-10-20T14:42:37.202Z,0.28
2022-10-20T14:45:39.319Z,0.30
2022-10-20T14:48:44.246Z,0.30
2022-10-20T14:51:54.546Z,0.30
2022-10-20T14:54:56.206Z,0.20
2022-10-20T14:57:58.014Z,0.20
2022-10-20T15:01:14.490Z,0.30
2022-10-20T15:04:22.901Z,0.35
2022-10-20T15:07:31.615Z,0.20
2022-10-20T15:10:33.945Z,0.20
2022-10-20T15:13:51.479Z,0.17
2022-10-20T15:16:54.067Z,0.20
2022-10-20T15:19:55.839Z,0.35
2022-10-20T15:23:02.439Z,0.10
2022-10-20T15:26:09.951Z,0.30
2022-10-20T15:29:11.801Z,0.30
2022-10-20T15:32:14.953Z,0.50
2022-10-20T15:35:19.109Z,0.20
2022-10-20T15:38:20.947Z,0.20
2022-10-20T15:41:24.392Z,0.20
2022-10-20T15:44:25.948Z,0.20
2022-10-20T15:47:28.219Z,0.20
2022-10-20T15:50:30.574Z,0.28
2022-10-20T15:53:32.075Z,0.40
2022-10-20T15:56:34.554Z,0.20
2022-10-20T15:59:36.127Z,0.20
2022-10-20T16:02:38.878Z,0.20
2022-10-20T16:05:40.671Z,0.20
2022-10-20T16:08:43.587Z,0.20
2022-10-20T16:11:45.339Z,0.28
2022-10-20T16:14:46.801Z,0.20
2022-10-20T16:20:57.883Z,0.80
2022-10-20T16:24:00.246Z,0.75
2022-10-20T16:30:09.867Z,0.40
2022-10-20T16:33:12.169Z,0.40
2022-10-20T16:36:15.960Z,0.40
2022-10-20T16:39:18.791Z,0.52
2022-10-20T16:42:20.261Z,0.30
2022-10-20T16:45:24.731Z,0.40
2022-10-20T16:48:26.786Z,0.20
2022-10-20T16:51:28.435Z,0.25
2022-10-20T16:54:29.974Z,0.30
2022-10-20T16:57:37.597Z,0.20
2022-10-20T17:00:39.557Z,0.40
2022-10-20T17:06:46.605Z,0.40
2022-10-20T17:09:48.273Z,0.57
2022-10-20T17:15:51.215Z,1.23
2022-10-20T17:18:53.806Z,0.90
2022-10-20T17:21:58.465Z,0.75
2022-10-20T17:24:59.949Z,0.63
2022-10-20T17:28:01.362Z,0.60
2022-10-20T17:31:05.823Z,0.70
2022-10-20T17:34:08.903Z,0.70
2022-10-20T17:37:10.367Z,0.80
2022-10-20T17:40:12.062Z,1.20
2022-10-20T17:43:14.151Z,0.80
2022-10-20T17:46:17.431Z,1.15
2022-10-20T17:49:19.510Z,0.93
2022-10-20T17:52:21.099Z,1.05
2022-10-20T17:55:22.539Z,1.20
2022-10-20T17:58:25.064Z,0.85
2022-10-20T18:01:29.717Z,0.80
2022-10-20T18:04:33.374Z,0.70
2022-10-20T18:07:34.817Z,0.80
2022-10-20T18:10:43.718Z,0.65
2022-10-20T18:13:46.349Z,0.52
2022-10-20T18:16:48.090Z,0.60
2022-10-20T18:19:51.481Z,0.70
2022-10-20T18:22:53.183Z,0.60
2022-10-20T18:25:54.645Z,0.68
2022-10-20T18:28:58.316Z,0.60
2022-10-20T18:31:59.706Z,0.50
2022-10-20T18:35:01.738Z,0.60
2022-10-20T18:38:03.420Z,0.60
2022-10-20T18:41:06.451Z,0.40
2022-10-20T18:44:10.942Z,0.43
2022-10-20T18:47:12.345Z,0.40
2022-10-20T18:50:14.346Z,0.40
2022-10-20T18:53:16.175Z,0.30
2022-10-20T18:56:19.738Z,0.50
2022-10-20T18:59:22.099Z,0.40
2022-10-20T19:02:23.532Z,0.50
2022-10-20T19:05:25.579Z,0.55
2022-10-20T19:08:27.072Z,0.40
2022-10-20T19:11:30.765Z,0.50
2022-10-20T19:14:32.214Z,0.40
2022-10-20T19:17:33.655Z,0.60
2022-10-20T19:20:35.568Z,0.30
2022-10-20T19:23:42.809Z,0.45
2022-10-20T19:26:56.918Z,0.50
2022-10-20T19:30:08.624Z,0.40
2022-10-20T19:33:10.043Z,0.52
2022-10-20T19:36:12.143Z,0.40
2022-10-20T19:39:15.891Z,0.60
2022-10-20T19:42:17.498Z,0.40
2022-10-20T19:45:19.067Z,0.50
2022-10-20T19:48:21.259Z,0.70
2022-10-20T19:51:23.298Z,0.50
2022-10-20T19:54:26.942Z,0.57
2022-10-20T19:57:29.051Z,0.52
2022-10-20T20:00:30.787Z,0.40
2022-10-20T20:03:32.683Z,0.40
2022-10-20T20:06:35.269Z,0.43
2022-10-20T20:09:36.722Z,0.47
2022-10-20T20:12:38.178Z,0.70
2022-10-20T20:15:39.509Z,0.40
2022-10-20T20:21:42.936Z,0.45
2022-10-20T20:24:44.702Z,0.43
2022-10-20T20:27:46.101Z,0.30
2022-10-20T20:30:58.525Z,0.40
2022-10-20T20:34:00.049Z,0.40
2022-10-20T20:37:02.218Z,0.20
2022-10-20T20:40:04.418Z,0.20
2022-10-20T20:43:05.930Z,0.28
2022-10-20T20:46:09.992Z,0.30
2022-10-20T20:49:11.433Z,0.30
2022-10-20T20:52:14.385Z,0.20
2022-10-20T20:55:16.450Z,0.20
2022-10-20T20:58:18.046Z,0.40
2022-10-20T21:01:21.015Z,0.30
2022-10-20T21:04:23.844Z,0.30
2022-10-20T21:07:27.800Z,0.30
2022-10-20T21:10:29.194Z,0.30
2022-10-20T21:16:34.120Z,0.30
2022-10-20T21:19:35.766Z,0.30
2022-10-20T21:22:37.950Z,0.40
2022-10-20T21:25:45.458Z,0.30
2022-10-20T21:28:47.209Z,0.20
2022-10-20T21:31:48.614Z,0.30
2022-10-20T21:37:51.843Z,0.20
2022-10-20T21:40:53.306Z,0.30
2022-10-20T21:43:57.515Z,0.35
2022-10-20T21:46:58.890Z,0.38
2022-10-20T21:53:02.275Z,0.40
2022-10-20T21:56:05.660Z,0.55
2022-10-20T21:59:07.983Z,0.40
2022-10-20T22:02:12.940Z,0.40
2022-10-20T22:05:14.469Z,0.20
2022-10-20T22:08:16.587Z,0.30
2022-10-20T22:11:21.206Z,0.40
2022-10-20T22:14:23.336Z,0.30
2022-10-20T22:17:24.852Z,0.40
2022-10-20T22:20:29.370Z,0.40
2022-10-20T22:23:31.501Z,0.70
2022-10-20T22:26:33.993Z,0.30
2022-10-20T22:29:35.436Z,0.40
2022-10-20T22:32:55.313Z,0.30
2022-10-20T22:35:57.210Z,0.40
2022-10-20T22:38:59.262Z,0.28
2022-10-20T22:42:00.679Z,0.38
2022-10-20T22:48:03.581Z,0.30
2022-10-20T22:51:07.814Z,0.40
2022-10-20T22:54:09.814Z,0.30
2022-10-20T22:57:14.408Z,0.43
2022-10-20T23:00:17.526Z,0.30
2022-10-20T23:03:18.921Z,0.47
2022-10-20T23:09:23.541Z,0.35
2022-10-20T23:12:24.952Z,0.40
2022-10-20T23:21:29.305Z,0.28
2022-10-20T23:27:36.655Z,0.40
2022-10-20T23:30:38.220Z,0.40
2022-10-20T23:36:41.611Z,0.50
2022-10-20T23:42:44.915Z,0.45
2022-10-20T23:45:46.465Z,0.55
2022-10-20T23:48:47.945Z,0.60
2022-10-20T23:51:49.428Z,0.40
2022-10-20T23:54:51.421Z,0.43
2022-10-20T23:57:56.071Z,0.45
